sensor_id;sensor_type;location;lat;lon;timestamp;P1;durP1;ratioP1;P2;durP2;ratioP2
12631;SDS011;6381;45.748;12.106;2023-11-21T00:00:56;25.80;;;22.83;;
12631;SDS011;6381;45.748;12.106;2023-11-21T00:03:28;25.97;;;23.20;;
12631;SDS011;6381;45.748;12.106;2023-11-21T00:05:58;25.73;;;22.93;;
12631;SDS011;6381;45.748;12.106;2023-11-21T00:08:28;24.43;;;21.93;;
12631;SDS011;6381;45.748;12.106;2023-11-21T00:10:58;27.70;;;21.67;;
12631;SDS011;6381;45.748;12.106;2023-11-21T00:13:29;25.30;;;21.23;;
12631;SDS011;6381;45.748;12.106;2023-11-21T00:15:59;24.03;;;21.43;;
12631;SDS011;6381;45.748;12.106;2023-11-21T00:18:28;22.13;;;19.67;;
12631;SDS011;6381;45.748;12.106;2023-11-21T00:20:58;21.60;;;19.30;;
12631;SDS011;6381;45.748;12.106;2023-11-21T00:23:28;20.97;;;18.67;;
12631;SDS011;6381;45.748;12.106;2023-11-21T00:25:58;19.93;;;17.87;;
12631;SDS011;6381;45.748;12.106;2023-11-21T00:28:29;20.90;;;18.73;;
12631;SDS011;6381;45.748;12.106;2023-11-21T00:30:59;20.47;;;18.37;;
12631;SDS011;6381;45.748;12.106;2023-11-21T00:33:29;19.53;;;17.43;;
12631;SDS011;6381;45.748;12.106;2023-11-21T00:35:59;21.23;;;19.03;;
12631;SDS011;6381;45.748;12.106;2023-11-21T00:38:29;20.77;;;18.57;;
12631;SDS011;6381;45.748;12.106;2023-11-21T00:40:59;20.77;;;18.60;;
12631;SDS011;6381;45.748;12.106;2023-11-21T00:43:30;20.53;;;17.73;;
12631;SDS011;6381;45.748;12.106;2023-11-21T00:46:03;20.60;;;18.40;;
12631;SDS011;6381;45.748;12.106;2023-11-21T00:48:34;22.30;;;18.23;;
12631;SDS011;6381;45.748;12.106;2023-11-21T00:51:04;19.90;;;17.90;;
12631;SDS011;6381;45.748;12.106;2023-11-21T00:53:35;19.80;;;17.80;;
12631;SDS011;6381;45.748;12.106;2023-11-21T00:56:05;20.93;;;18.20;;
12631;SDS011;6381;45.748;12.106;2023-11-21T00:58:37;20.57;;;17.90;;
12631;SDS011;6381;45.748;12.106;2023-11-21T01:01:10;19.90;;;17.90;;
12631;SDS011;6381;45.748;12.106;2023-11-21T01:03:40;20.53;;;17.73;;
12631;SDS011;6381;45.748;12.106;2023-11-21T01:06:09;21.17;;;17.03;;
12631;SDS011;6381;45.748;12.106;2023-11-21T01:08:43;22.57;;;20.10;;
12631;SDS011;6381;45.748;12.106;2023-11-21T01:11:13;20.60;;;17.87;;
12631;SDS011;6381;45.748;12.106;2023-11-21T01:13:44;20.83;;;18.20;;
12631;SDS011;6381;45.748;12.106;2023-11-21T01:16:15;22.10;;;19.73;;
12631;SDS011;6381;45.748;12.106;2023-11-21T01:18:45;20.13;;;18.10;;
12631;SDS011;6381;45.748;12.106;2023-11-21T01:21:15;21.33;;;19.03;;
12631;SDS011;6381;45.748;12.106;2023-11-21T01:23:45;19.67;;;17.67;;
12631;SDS011;6381;45.748;12.106;2023-11-21T01:26:15;22.23;;;18.90;;
12631;SDS011;6381;45.748;12.106;2023-11-21T01:28:47;20.43;;;18.20;;
12631;SDS011;6381;45.748;12.106;2023-11-21T01:31:18;23.93;;;19.47;;
12631;SDS011;6381;45.748;12.106;2023-11-21T01:33:48;24.40;;;19.50;;
12631;SDS011;6381;45.748;12.106;2023-11-21T01:36:17;23.53;;;19.27;;
12631;SDS011;6381;45.748;12.106;2023-11-21T01:38:48;20.47;;;18.37;;
12631;SDS011;6381;45.748;12.106;2023-11-21T01:41:18;19.40;;;17.50;;
12631;SDS011;6381;45.748;12.106;2023-11-21T01:43:50;19.27;;;16.27;;
12631;SDS011;6381;45.748;12.106;2023-11-21T01:46:21;18.33;;;16.43;;
12631;SDS011;6381;45.748;12.106;2023-11-21T01:48:52;16.67;;;14.93;;
12631;SDS011;6381;45.748;12.106;2023-11-21T01:51:22;17.93;;;15.20;;
12631;SDS011;6381;45.748;12.106;2023-11-21T01:53:54;18.23;;;15.97;;
12631;SDS011;6381;45.748;12.106;2023-11-21T01:56:25;17.43;;;15.57;;
12631;SDS011;6381;45.748;12.106;2023-11-21T01:58:56;19.63;;;16.57;;
12631;SDS011;6381;45.748;12.106;2023-11-21T02:01:26;18.40;;;16.30;;
12631;SDS011;6381;45.748;12.106;2023-11-21T02:03:56;17.50;;;15.67;;
12631;SDS011;6381;45.748;12.106;2023-11-21T02:06:25;18.40;;;16.27;;
12631;SDS011;6381;45.748;12.106;2023-11-21T02:08:58;16.80;;;15.00;;
12631;SDS011;6381;45.748;12.106;2023-11-21T02:11:28;16.87;;;15.07;;
12631;SDS011;6381;45.748;12.106;2023-11-21T02:13:59;17.03;;;15.23;;
12631;SDS011;6381;45.748;12.106;2023-11-21T02:16:30;17.43;;;15.07;;
12631;SDS011;6381;45.748;12.106;2023-11-21T02:19:00;16.37;;;14.60;;
12631;SDS011;6381;45.748;12.106;2023-11-21T02:21:31;16.50;;;14.80;;
12631;SDS011;6381;45.748;12.106;2023-11-21T02:24:03;17.13;;;14.93;;
12631;SDS011;6381;45.748;12.106;2023-11-21T02:26:33;17.10;;;14.97;;
12631;SDS011;6381;45.748;12.106;2023-11-21T02:29:02;15.23;;;13.63;;
12631;SDS011;6381;45.748;12.106;2023-11-21T02:31:32;15.90;;;14.23;;
12631;SDS011;6381;45.748;12.106;2023-11-21T02:34:02;15.90;;;14.30;;
12631;SDS011;6381;45.748;12.106;2023-11-21T02:36:33;16.53;;;14.63;;
12631;SDS011;6381;45.748;12.106;2023-11-21T02:39:04;17.80;;;14.33;;
12631;SDS011;6381;45.748;12.106;2023-11-21T02:41:36;17.77;;;14.93;;
12631;SDS011;6381;45.748;12.106;2023-11-21T02:44:06;16.63;;;13.83;;
12631;SDS011;6381;45.748;12.106;2023-11-21T02:46:37;17.23;;;14.83;;
12631;SDS011;6381;45.748;12.106;2023-11-21T02:49:07;15.73;;;14.07;;
12631;SDS011;6381;45.748;12.106;2023-11-21T02:51:37;18.27;;;14.17;;
12631;SDS011;6381;45.748;12.106;2023-11-21T02:54:08;16.87;;;13.67;;
12631;SDS011;6381;45.748;12.106;2023-11-21T02:56:38;18.90;;;13.07;;
12631;SDS011;6381;45.748;12.106;2023-11-21T02:59:08;15.13;;;13.37;;
12631;SDS011;6381;45.748;12.106;2023-11-21T03:01:38;15.77;;;13.80;;
12631;SDS011;6381;45.748;12.106;2023-11-21T03:04:08;15.93;;;14.07;;
12631;SDS011;6381;45.748;12.106;2023-11-21T03:06:38;17.93;;;14.20;;
12631;SDS011;6381;45.748;12.106;2023-11-21T03:09:10;16.50;;;14.33;;
12631;SDS011;6381;45.748;12.106;2023-11-21T03:11:41;16.07;;;14.33;;
12631;SDS011;6381;45.748;12.106;2023-11-21T03:14:11;15.93;;;14.33;;
12631;SDS011;6381;45.748;12.106;2023-11-21T03:16:41;15.87;;;14.07;;
12631;SDS011;6381;45.748;12.106;2023-11-21T03:19:12;19.40;;;14.10;;
12631;SDS011;6381;45.748;12.106;2023-11-21T03:21:42;17.33;;;14.90;;
12631;SDS011;6381;45.748;12.106;2023-11-21T03:24:13;16.07;;;13.90;;
12631;SDS011;6381;45.748;12.106;2023-11-21T03:26:44;16.53;;;14.00;;
12631;SDS011;6381;45.748;12.106;2023-11-21T03:29:15;17.03;;;15.33;;
12631;SDS011;6381;45.748;12.106;2023-11-21T03:31:44;15.20;;;13.63;;
12631;SDS011;6381;45.748;12.106;2023-11-21T03:34:15;17.47;;;14.57;;
12631;SDS011;6381;45.748;12.106;2023-11-21T03:36:52;17.90;;;14.63;;
12631;SDS011;6381;45.748;12.106;2023-11-21T03:39:23;14.90;;;13.40;;
12631;SDS011;6381;45.748;12.106;2023-11-21T03:41:53;15.47;;;13.70;;
12631;SDS011;6381;45.748;12.106;2023-11-21T03:44:23;15.47;;;13.87;;
12631;SDS011;6381;45.748;12.106;2023-11-21T03:46:53;15.03;;;12.83;;
12631;SDS011;6381;45.748;12.106;2023-11-21T03:49:23;13.77;;;11.80;;
12631;SDS011;6381;45.748;12.106;2023-11-21T03:51:52;13.37;;;11.97;;
12631;SDS011;6381;45.748;12.106;2023-11-21T03:54:24;14.80;;;12.40;;
12631;SDS011;6381;45.748;12.106;2023-11-21T03:56:53;13.17;;;11.67;;
12631;SDS011;6381;45.748;12.106;2023-11-21T03:59:23;14.20;;;11.93;;
12631;SDS011;6381;45.748;12.106;2023-11-21T04:01:55;14.17;;;11.23;;
12631;SDS011;6381;45.748;12.106;2023-11-21T04:04:25;15.27;;;13.33;;
12631;SDS011;6381;45.748;12.106;2023-11-21T04:06:55;14.07;;;12.43;;
12631;SDS011;6381;45.748;12.106;2023-11-21T04:09:26;15.00;;;13.43;;
12631;SDS011;6381;45.748;12.106;2023-11-21T04:11:56;19.27;;;15.53;;
12631;SDS011;6381;45.748;12.106;2023-11-21T04:14:26;16.67;;;14.70;;
12631;SDS011;6381;45.748;12.106;2023-11-21T04:16:56;17.53;;;14.73;;
12631;SDS011;6381;45.748;12.106;2023-11-21T04:19:26;19.87;;;14.87;;
12631;SDS011;6381;45.748;12.106;2023-11-21T04:21:56;20.07;;;15.97;;
12631;SDS011;6381;45.748;12.106;2023-11-21T04:24:27;18.07;;;13.63;;
12631;SDS011;6381;45.748;12.106;2023-11-21T04:26:56;13.43;;;12.10;;
12631;SDS011;6381;45.748;12.106;2023-11-21T04:29:26;13.63;;;12.10;;
12631;SDS011;6381;45.748;12.106;2023-11-21T04:31:56;13.37;;;12.00;;
12631;SDS011;6381;45.748;12.106;2023-11-21T04:34:26;15.17;;;12.47;;
12631;SDS011;6381;45.748;12.106;2023-11-21T04:36:57;13.17;;;11.47;;
12631;SDS011;6381;45.748;12.106;2023-11-21T04:39:28;14.63;;;11.87;;
12631;SDS011;6381;45.748;12.106;2023-11-21T04:41:58;12.10;;;10.67;;
12631;SDS011;6381;45.748;12.106;2023-11-21T04:44:28;12.53;;;11.23;;
12631;SDS011;6381;45.748;12.106;2023-11-21T04:46:58;12.63;;;11.07;;
12631;SDS011;6381;45.748;12.106;2023-11-21T04:49:29;12.83;;;11.53;;
12631;SDS011;6381;45.748;12.106;2023-11-21T04:51:59;13.13;;;11.73;;
12631;SDS011;6381;45.748;12.106;2023-11-21T04:54:31;13.03;;;11.70;;
12631;SDS011;6381;45.748;12.106;2023-11-21T04:57:00;12.20;;;10.87;;
12631;SDS011;6381;45.748;12.106;2023-11-21T04:59:30;12.57;;;11.20;;
12631;SDS011;6381;45.748;12.106;2023-11-21T05:02:00;12.63;;;10.17;;
12631;SDS011;6381;45.748;12.106;2023-11-21T05:04:30;11.73;;;10.53;;
12631;SDS011;6381;45.748;12.106;2023-11-21T05:07:00;11.83;;;10.63;;
12631;SDS011;6381;45.748;12.106;2023-11-21T05:09:31;11.07;;;9.93;;
12631;SDS011;6381;45.748;12.106;2023-11-21T05:12:03;12.67;;;10.33;;
12631;SDS011;6381;45.748;12.106;2023-11-21T05:14:33;12.33;;;10.37;;
12631;SDS011;6381;45.748;12.106;2023-11-21T05:17:03;12.80;;;10.67;;
12631;SDS011;6381;45.748;12.106;2023-11-21T05:19:33;11.33;;;10.13;;
12631;SDS011;6381;45.748;12.106;2023-11-21T05:22:04;11.60;;;10.40;;
12631;SDS011;6381;45.748;12.106;2023-11-21T05:24:37;11.70;;;10.50;;
12631;SDS011;6381;45.748;12.106;2023-11-21T05:27:07;12.17;;;10.93;;
12631;SDS011;6381;45.748;12.106;2023-11-21T05:29:37;15.53;;;10.80;;
12631;SDS011;6381;45.748;12.106;2023-11-21T05:32:07;11.90;;;10.73;;
12631;SDS011;6381;45.748;12.106;2023-11-21T05:34:37;12.10;;;10.87;;
12631;SDS011;6381;45.748;12.106;2023-11-21T05:37:07;11.80;;;10.37;;
12631;SDS011;6381;45.748;12.106;2023-11-21T05:39:39;12.93;;;10.47;;
12631;SDS011;6381;45.748;12.106;2023-11-21T05:42:08;11.93;;;10.73;;
12631;SDS011;6381;45.748;12.106;2023-11-21T05:44:41;12.03;;;10.80;;
12631;SDS011;6381;45.748;12.106;2023-11-21T05:47:11;11.60;;;10.50;;
12631;SDS011;6381;45.748;12.106;2023-11-21T05:49:42;11.03;;;9.83;;
12631;SDS011;6381;45.748;12.106;2023-11-21T05:52:17;13.23;;;9.80;;
12631;SDS011;6381;45.748;12.106;2023-11-21T05:54:50;10.60;;;9.50;;
12631;SDS011;6381;45.748;12.106;2023-11-21T05:57:21;11.07;;;9.40;;
12631;SDS011;6381;45.748;12.106;2023-11-21T05:59:51;11.40;;;9.73;;
12631;SDS011;6381;45.748;12.106;2023-11-21T06:02:21;13.43;;;10.43;;
12631;SDS011;6381;45.748;12.106;2023-11-21T06:04:50;12.07;;;10.60;;
12631;SDS011;6381;45.748;12.106;2023-11-21T06:07:21;16.17;;;10.93;;
12631;SDS011;6381;45.748;12.106;2023-11-21T06:09:52;11.70;;;10.07;;
12631;SDS011;6381;45.748;12.106;2023-11-21T06:12:22;12.00;;;9.77;;
12631;SDS011;6381;45.748;12.106;2023-11-21T06:14:52;11.83;;;9.87;;
12631;SDS011;6381;45.748;12.106;2023-11-21T06:17:23;9.90;;;8.87;;
12631;SDS011;6381;45.748;12.106;2023-11-21T06:19:55;10.13;;;9.13;;
12631;SDS011;6381;45.748;12.106;2023-11-21T06:22:25;11.80;;;9.07;;
12631;SDS011;6381;45.748;12.106;2023-11-21T06:24:56;13.53;;;9.80;;
12631;SDS011;6381;45.748;12.106;2023-11-21T06:27:27;13.23;;;9.77;;
12631;SDS011;6381;45.748;12.106;2023-11-21T06:29:57;11.90;;;8.80;;
12631;SDS011;6381;45.748;12.106;2023-11-21T06:32:27;12.00;;;8.93;;
12631;SDS011;6381;45.748;12.106;2023-11-21T06:34:57;16.07;;;9.23;;
12631;SDS011;6381;45.748;12.106;2023-11-21T06:37:28;12.30;;;9.23;;
12631;SDS011;6381;45.748;12.106;2023-11-21T06:40:00;12.90;;;9.50;;
12631;SDS011;6381;45.748;12.106;2023-11-21T06:42:32;14.00;;;10.43;;
12631;SDS011;6381;45.748;12.106;2023-11-21T06:45:05;10.70;;;9.60;;
12631;SDS011;6381;45.748;12.106;2023-11-21T06:47:38;16.77;;;10.13;;
12631;SDS011;6381;45.748;12.106;2023-11-21T06:50:09;11.83;;;9.33;;
12631;SDS011;6381;45.748;12.106;2023-11-21T06:52:39;10.80;;;9.70;;
12631;SDS011;6381;45.748;12.106;2023-11-21T06:55:11;11.87;;;9.50;;
12631;SDS011;6381;45.748;12.106;2023-11-21T06:57:40;11.77;;;9.17;;
12631;SDS011;6381;45.748;12.106;2023-11-21T07:00:11;12.07;;;9.70;;
12631;SDS011;6381;45.748;12.106;2023-11-21T07:02:42;11.63;;;8.77;;
12631;SDS011;6381;45.748;12.106;2023-11-21T07:05:12;9.80;;;8.53;;
12631;SDS011;6381;45.748;12.106;2023-11-21T07:07:42;10.30;;;8.97;;
12631;SDS011;6381;45.748;12.106;2023-11-21T07:10:14;10.30;;;9.27;;
12631;SDS011;6381;45.748;12.106;2023-11-21T07:12:44;13.20;;;9.43;;
12631;SDS011;6381;45.748;12.106;2023-11-21T07:15:14;19.93;;;9.50;;
12631;SDS011;6381;45.748;12.106;2023-11-21T07:17:44;9.80;;;8.80;;
12631;SDS011;6381;45.748;12.106;2023-11-21T07:20:14;10.13;;;9.13;;
12631;SDS011;6381;45.748;12.106;2023-11-21T07:22:44;14.33;;;9.30;;
12631;SDS011;6381;45.748;12.106;2023-11-21T07:25:16;14.60;;;9.53;;
12631;SDS011;6381;45.748;12.106;2023-11-21T07:27:46;13.90;;;9.57;;
12631;SDS011;6381;45.748;12.106;2023-11-21T07:30:16;13.47;;;9.50;;
12631;SDS011;6381;45.748;12.106;2023-11-21T07:32:46;12.53;;;9.57;;
12631;SDS011;6381;45.748;12.106;2023-11-21T07:35:16;11.53;;;9.40;;
12631;SDS011;6381;45.748;12.106;2023-11-21T07:37:46;10.67;;;9.17;;
12631;SDS011;6381;45.748;12.106;2023-11-21T07:40:17;11.03;;;9.00;;
12631;SDS011;6381;45.748;12.106;2023-11-21T07:42:47;10.70;;;9.60;;
12631;SDS011;6381;45.748;12.106;2023-11-21T07:45:18;10.03;;;8.37;;
12631;SDS011;6381;45.748;12.106;2023-11-21T07:47:49;11.40;;;10.17;;
12631;SDS011;6381;45.748;12.106;2023-11-21T07:50:19;14.70;;;11.63;;
12631;SDS011;6381;45.748;12.106;2023-11-21T07:52:50;15.70;;;12.77;;
12631;SDS011;6381;45.748;12.106;2023-11-21T07:55:22;14.87;;;13.07;;
12631;SDS011;6381;45.748;12.106;2023-11-21T07:57:54;18.97;;;13.50;;
12631;SDS011;6381;45.748;12.106;2023-11-21T08:00:25;16.57;;;13.50;;
12631;SDS011;6381;45.748;12.106;2023-11-21T08:02:57;16.60;;;11.60;;
12631;SDS011;6381;45.748;12.106;2023-11-21T08:05:27;16.53;;;12.10;;
12631;SDS011;6381;45.748;12.106;2023-11-21T08:08:03;19.90;;;15.77;;
12631;SDS011;6381;45.748;12.106;2023-11-21T08:10:36;22.73;;;16.67;;
12631;SDS011;6381;45.748;12.106;2023-11-21T08:13:06;19.87;;;15.70;;
12631;SDS011;6381;45.748;12.106;2023-11-21T08:15:36;20.07;;;14.33;;
12631;SDS011;6381;45.748;12.106;2023-11-21T08:18:07;16.13;;;11.77;;
12631;SDS011;6381;45.748;12.106;2023-11-21T08:20:37;12.27;;;9.67;;
12631;SDS011;6381;45.748;12.106;2023-11-21T08:23:07;13.83;;;10.00;;
12631;SDS011;6381;45.748;12.106;2023-11-21T08:25:38;13.97;;;10.43;;
12631;SDS011;6381;45.748;12.106;2023-11-21T08:28:09;20.43;;;11.63;;
12631;SDS011;6381;45.748;12.106;2023-11-21T08:30:39;18.57;;;11.53;;
12631;SDS011;6381;45.748;12.106;2023-11-21T08:33:09;17.80;;;12.47;;
12631;SDS011;6381;45.748;12.106;2023-11-21T08:35:40;16.53;;;11.40;;
12631;SDS011;6381;45.748;12.106;2023-11-21T08:38:10;18.23;;;11.67;;
12631;SDS011;6381;45.748;12.106;2023-11-21T08:40:41;15.03;;;10.13;;
12631;SDS011;6381;45.748;12.106;2023-11-21T08:43:11;9.63;;;7.97;;
12631;SDS011;6381;45.748;12.106;2023-11-21T08:45:42;10.20;;;7.30;;
12631;SDS011;6381;45.748;12.106;2023-11-21T08:48:11;9.77;;;7.13;;
12631;SDS011;6381;45.748;12.106;2023-11-21T08:50:41;10.43;;;7.83;;
12631;SDS011;6381;45.748;12.106;2023-11-21T08:53:11;10.97;;;7.57;;
12631;SDS011;6381;45.748;12.106;2023-11-21T08:55:42;8.40;;;6.97;;
12631;SDS011;6381;45.748;12.106;2023-11-21T08:58:12;10.93;;;7.93;;
12631;SDS011;6381;45.748;12.106;2023-11-21T09:00:42;10.20;;;7.97;;
12631;SDS011;6381;45.748;12.106;2023-11-21T09:03:13;8.50;;;7.03;;
12631;SDS011;6381;45.748;12.106;2023-11-21T09:05:43;10.73;;;7.80;;
12631;SDS011;6381;45.748;12.106;2023-11-21T09:08:13;8.33;;;6.90;;
12631;SDS011;6381;45.748;12.106;2023-11-21T09:10:43;8.70;;;7.13;;
12631;SDS011;6381;45.748;12.106;2023-11-21T09:13:14;9.50;;;7.90;;
12631;SDS011;6381;45.748;12.106;2023-11-21T09:15:44;8.13;;;7.40;;
12631;SDS011;6381;45.748;12.106;2023-11-21T09:18:17;11.17;;;8.67;;
12631;SDS011;6381;45.748;12.106;2023-11-21T09:20:47;11.03;;;8.03;;
12631;SDS011;6381;45.748;12.106;2023-11-21T09:23:17;11.30;;;8.07;;
12631;SDS011;6381;45.748;12.106;2023-11-21T09:25:48;11.03;;;8.03;;
12631;SDS011;6381;45.748;12.106;2023-11-21T09:28:19;11.23;;;8.73;;
12631;SDS011;6381;45.748;12.106;2023-11-21T09:30:49;11.47;;;8.53;;
12631;SDS011;6381;45.748;12.106;2023-11-21T09:33:18;12.03;;;9.40;;
12631;SDS011;6381;45.748;12.106;2023-11-21T09:35:50;11.73;;;9.60;;
12631;SDS011;6381;45.748;12.106;2023-11-21T09:38:20;17.67;;;12.37;;
12631;SDS011;6381;45.748;12.106;2023-11-21T09:40:51;14.53;;;11.63;;
12631;SDS011;6381;45.748;12.106;2023-11-21T09:43:21;18.97;;;15.53;;
12631;SDS011;6381;45.748;12.106;2023-11-21T09:45:56;10.67;;;8.70;;
12631;SDS011;6381;45.748;12.106;2023-11-21T09:48:28;8.83;;;7.20;;
12631;SDS011;6381;45.748;12.106;2023-11-21T09:50:59;7.47;;;6.20;;
12631;SDS011;6381;45.748;12.106;2023-11-21T09:53:31;7.70;;;6.07;;
12631;SDS011;6381;45.748;12.106;2023-11-21T09:56:04;11.07;;;6.80;;
12631;SDS011;6381;45.748;12.106;2023-11-21T09:58:36;10.33;;;7.90;;
12631;SDS011;6381;45.748;12.106;2023-11-21T10:01:06;8.13;;;6.10;;
12631;SDS011;6381;45.748;12.106;2023-11-21T10:03:36;7.50;;;6.30;;
12631;SDS011;6381;45.748;12.106;2023-11-21T10:06:07;9.40;;;6.73;;
12631;SDS011;6381;45.748;12.106;2023-11-21T10:08:37;15.20;;;10.63;;
12631;SDS011;6381;45.748;12.106;2023-11-21T10:11:20;11.77;;;8.23;;
12631;SDS011;6381;45.748;12.106;2023-11-21T10:13:53;12.63;;;9.07;;
12631;SDS011;6381;45.748;12.106;2023-11-21T10:16:25;19.80;;;12.27;;
12631;SDS011;6381;45.748;12.106;2023-11-21T10:18:59;19.43;;;12.37;;
12631;SDS011;6381;45.748;12.106;2023-11-21T10:21:37;11.97;;;8.07;;
12631;SDS011;6381;45.748;12.106;2023-11-21T10:24:08;11.27;;;7.10;;
12631;SDS011;6381;45.748;12.106;2023-11-21T10:26:41;18.90;;;10.17;;
12631;SDS011;6381;45.748;12.106;2023-11-21T10:29:20;19.47;;;9.67;;
12631;SDS011;6381;45.748;12.106;2023-11-21T10:31:51;15.77;;;8.87;;
12631;SDS011;6381;45.748;12.106;2023-11-21T10:34:22;16.70;;;8.80;;
12631;SDS011;6381;45.748;12.106;2023-11-21T10:36:52;20.67;;;11.23;;
12631;SDS011;6381;45.748;12.106;2023-11-21T10:39:25;25.20;;;13.50;;
12631;SDS011;6381;45.748;12.106;2023-11-21T10:41:59;16.87;;;8.73;;
12631;SDS011;6381;45.748;12.106;2023-11-21T10:44:29;13.83;;;9.40;;
12631;SDS011;6381;45.748;12.106;2023-11-21T10:46:59;10.30;;;7.07;;
12631;SDS011;6381;45.748;12.106;2023-11-21T10:49:30;12.93;;;7.23;;
12631;SDS011;6381;45.748;12.106;2023-11-21T10:51:59;9.13;;;5.53;;
12631;SDS011;6381;45.748;12.106;2023-11-21T10:54:31;11.43;;;4.97;;
12631;SDS011;6381;45.748;12.106;2023-11-21T10:57:02;6.30;;;4.70;;
12631;SDS011;6381;45.748;12.106;2023-11-21T10:59:33;12.63;;;6.97;;
12631;SDS011;6381;45.748;12.106;2023-11-21T11:02:11;9.13;;;6.47;;
12631;SDS011;6381;45.748;12.106;2023-11-21T11:04:52;5.80;;;4.10;;
12631;SDS011;6381;45.748;12.106;2023-11-21T11:07:25;7.53;;;5.20;;
12631;SDS011;6381;45.748;12.106;2023-11-21T11:09:58;7.77;;;4.90;;
12631;SDS011;6381;45.748;12.106;2023-11-21T11:12:29;4.87;;;3.90;;
12631;SDS011;6381;45.748;12.106;2023-11-21T11:14:59;7.67;;;5.40;;
12631;SDS011;6381;45.748;12.106;2023-11-21T11:17:32;4.80;;;4.30;;
12631;SDS011;6381;45.748;12.106;2023-11-21T11:20:02;8.63;;;6.10;;
12631;SDS011;6381;45.748;12.106;2023-11-21T11:22:35;14.83;;;7.67;;
12631;SDS011;6381;45.748;12.106;2023-11-21T11:25:15;16.83;;;8.90;;
12631;SDS011;6381;45.748;12.106;2023-11-21T11:27:58;19.33;;;8.27;;
12631;SDS011;6381;45.748;12.106;2023-11-21T11:30:38;10.87;;;7.10;;
12631;SDS011;6381;45.748;12.106;2023-11-21T11:33:20;9.23;;;5.87;;
12631;SDS011;6381;45.748;12.106;2023-11-21T11:36:04;9.20;;;5.70;;
12631;SDS011;6381;45.748;12.106;2023-11-21T11:38:39;7.07;;;4.80;;
12631;SDS011;6381;45.748;12.106;2023-11-21T11:41:24;12.17;;;6.47;;
12631;SDS011;6381;45.748;12.106;2023-11-21T11:43:56;27.03;;;9.33;;
12631;SDS011;6381;45.748;12.106;2023-11-21T11:46:39;19.53;;;7.87;;
12631;SDS011;6381;45.748;12.106;2023-11-21T11:49:11;65.57;;;18.27;;
12631;SDS011;6381;45.748;12.106;2023-11-21T11:54:56;33.53;;;11.17;;
12631;SDS011;6381;45.748;12.106;2023-11-21T11:57:29;19.90;;;8.77;;
12631;SDS011;6381;45.748;12.106;2023-11-21T12:00:10;38.67;;;13.33;;
12631;SDS011;6381;45.748;12.106;2023-11-21T12:02:46;13.37;;;6.17;;
12631;SDS011;6381;45.748;12.106;2023-11-21T12:05:17;12.47;;;6.10;;
12631;SDS011;6381;45.748;12.106;2023-11-21T12:07:49;9.43;;;5.80;;
12631;SDS011;6381;45.748;12.106;2023-11-21T12:10:21;9.50;;;6.10;;
12631;SDS011;6381;45.748;12.106;2023-11-21T12:12:55;31.00;;;13.30;;
12631;SDS011;6381;45.748;12.106;2023-11-21T12:15:27;25.73;;;11.17;;
12631;SDS011;6381;45.748;12.106;2023-11-21T12:17:59;6.20;;;5.47;;
12631;SDS011;6381;45.748;12.106;2023-11-21T12:20:29;31.43;;;12.80;;
12631;SDS011;6381;45.748;12.106;2023-11-21T12:22:59;13.87;;;6.60;;
12631;SDS011;6381;45.748;12.106;2023-11-21T12:25:30;11.93;;;6.13;;
12631;SDS011;6381;45.748;12.106;2023-11-21T12:28:01;7.20;;;5.10;;
12631;SDS011;6381;45.748;12.106;2023-11-21T12:30:35;14.10;;;7.67;;
12631;SDS011;6381;45.748;12.106;2023-11-21T12:33:06;10.07;;;5.30;;
12631;SDS011;6381;45.748;12.106;2023-11-21T12:35:37;14.23;;;7.67;;
12631;SDS011;6381;45.748;12.106;2023-11-21T12:38:10;6.90;;;4.63;;
12631;SDS011;6381;45.748;12.106;2023-11-21T12:41:01;6.73;;;4.87;;
12631;SDS011;6381;45.748;12.106;2023-11-21T12:43:32;7.10;;;5.20;;
12631;SDS011;6381;45.748;12.106;2023-11-21T12:46:06;6.87;;;5.33;;
12631;SDS011;6381;45.748;12.106;2023-11-21T12:48:37;5.87;;;4.70;;
12631;SDS011;6381;45.748;12.106;2023-11-21T12:51:09;10.30;;;5.73;;
12631;SDS011;6381;45.748;12.106;2023-11-21T12:53:41;7.97;;;4.57;;
12631;SDS011;6381;45.748;12.106;2023-11-21T12:56:12;11.60;;;6.67;;
12631;SDS011;6381;45.748;12.106;2023-11-21T12:58:44;10.80;;;6.80;;
12631;SDS011;6381;45.748;12.106;2023-11-21T13:01:16;12.53;;;6.10;;
12631;SDS011;6381;45.748;12.106;2023-11-21T13:03:50;7.70;;;5.70;;
12631;SDS011;6381;45.748;12.106;2023-11-21T13:06:20;5.63;;;4.13;;
12631;SDS011;6381;45.748;12.106;2023-11-21T13:08:52;6.73;;;4.37;;
12631;SDS011;6381;45.748;12.106;2023-11-21T13:11:27;6.97;;;5.37;;
12631;SDS011;6381;45.748;12.106;2023-11-21T13:14:00;5.50;;;4.57;;
12631;SDS011;6381;45.748;12.106;2023-11-21T13:16:32;7.70;;;5.33;;
12631;SDS011;6381;45.748;12.106;2023-11-21T13:19:05;6.20;;;5.13;;
12631;SDS011;6381;45.748;12.106;2023-11-21T13:21:36;7.23;;;5.30;;
12631;SDS011;6381;45.748;12.106;2023-11-21T13:24:07;6.20;;;4.50;;
12631;SDS011;6381;45.748;12.106;2023-11-21T13:26:37;4.50;;;4.10;;
12631;SDS011;6381;45.748;12.106;2023-11-21T13:29:08;4.90;;;4.40;;
12631;SDS011;6381;45.748;12.106;2023-11-21T13:31:41;5.43;;;3.80;;
12631;SDS011;6381;45.748;12.106;2023-11-21T13:34:11;4.50;;;3.77;;
12631;SDS011;6381;45.748;12.106;2023-11-21T13:36:49;6.73;;;4.20;;
12631;SDS011;6381;45.748;12.106;2023-11-21T13:39:25;4.10;;;3.70;;
12631;SDS011;6381;45.748;12.106;2023-11-21T13:41:56;3.83;;;3.43;;
12631;SDS011;6381;45.748;12.106;2023-11-21T13:44:26;4.53;;;3.70;;
12631;SDS011;6381;45.748;12.106;2023-11-21T13:47:03;4.33;;;3.67;;
12631;SDS011;6381;45.748;12.106;2023-11-21T13:49:35;5.10;;;3.63;;
12631;SDS011;6381;45.748;12.106;2023-11-21T13:52:08;10.57;;;3.90;;
12631;SDS011;6381;45.748;12.106;2023-11-21T13:54:43;6.80;;;3.80;;
12631;SDS011;6381;45.748;12.106;2023-11-21T13:57:13;6.23;;;3.70;;
12631;SDS011;6381;45.748;12.106;2023-11-21T13:59:43;8.10;;;4.03;;
12631;SDS011;6381;45.748;12.106;2023-11-21T14:02:14;12.33;;;3.83;;
12631;SDS011;6381;45.748;12.106;2023-11-21T14:04:45;8.10;;;3.50;;
12631;SDS011;6381;45.748;12.106;2023-11-21T14:07:23;3.97;;;2.67;;
12631;SDS011;6381;45.748;12.106;2023-11-21T14:10:00;2.60;;;2.40;;
12631;SDS011;6381;45.748;12.106;2023-11-21T14:12:30;4.17;;;3.00;;
12631;SDS011;6381;45.748;12.106;2023-11-21T14:15:06;4.50;;;3.00;;
12631;SDS011;6381;45.748;12.106;2023-11-21T14:17:39;3.53;;;2.77;;
12631;SDS011;6381;45.748;12.106;2023-11-21T14:20:09;4.30;;;2.90;;
12631;SDS011;6381;45.748;12.106;2023-11-21T14:22:44;6.33;;;3.37;;
12631;SDS011;6381;45.748;12.106;2023-11-21T14:25:14;4.93;;;3.60;;
12631;SDS011;6381;45.748;12.106;2023-11-21T14:27:45;8.00;;;3.90;;
12631;SDS011;6381;45.748;12.106;2023-11-21T14:30:15;6.07;;;3.63;;
12631;SDS011;6381;45.748;12.106;2023-11-21T14:32:48;5.30;;;3.87;;
12631;SDS011;6381;45.748;12.106;2023-11-21T14:35:18;10.93;;;7.27;;
12631;SDS011;6381;45.748;12.106;2023-11-21T14:37:47;18.20;;;9.70;;
12631;SDS011;6381;45.748;12.106;2023-11-21T14:40:17;16.60;;;9.33;;
12631;SDS011;6381;45.748;12.106;2023-11-21T14:42:51;11.73;;;7.33;;
12631;SDS011;6381;45.748;12.106;2023-11-21T14:45:24;8.73;;;5.50;;
12631;SDS011;6381;45.748;12.106;2023-11-21T14:47:55;9.97;;;5.10;;
12631;SDS011;6381;45.748;12.106;2023-11-21T14:50:33;7.80;;;5.00;;
12631;SDS011;6381;45.748;12.106;2023-11-21T14:53:18;9.83;;;6.10;;
12631;SDS011;6381;45.748;12.106;2023-11-21T14:56:09;7.00;;;4.93;;
12631;SDS011;6381;45.748;12.106;2023-11-21T14:58:48;10.10;;;5.60;;